sensor_id;sensor_type;location;lat;lon;timestamp;P1;durP1;ratioP1;P2;durP2;ratioP2
28926;SDS011;16038;47.692;9.400;2022-07-05T00:01:56;11.82;;;2.50;;
28926;SDS011;16038;47.692;9.400;2022-07-05T00:04:22;5.45;;;2.10;;
28926;SDS011;16038;47.692;9.400;2022-07-05T00:06:47;7.65;;;2.03;;
28926;SDS011;16038;47.692;9.400;2022-07-05T00:09:31;11.95;;;2.58;;
28926;SDS011;16038;47.692;9.400;2022-07-05T00:11:56;7.40;;;2.25;;
28926;SDS011;16038;47.692;9.400;2022-07-05T00:14:22;7.28;;;2.33;;
28926;SDS011;16038;47.692;9.400;2022-07-05T00:16:48;11.60;;;1.95;;
28926;SDS011;16038;47.692;9.400;2022-07-05T00:19:14;5.57;;;2.30;;
28926;SDS011;16038;47.692;9.400;2022-07-05T00:21:40;8.98;;;2.15;;
28926;SDS011;16038;47.692;9.400;2022-07-05T00:24:05;6.03;;;2.20;;
28926;SDS011;16038;47.692;9.400;2022-07-05T00:26:31;9.43;;;2.70;;
28926;SDS011;16038;47.692;9.400;2022-07-05T00:28:56;6.32;;;2.30;;
28926;SDS011;16038;47.692;9.400;2022-07-05T00:31:21;10.02;;;2.78;;
28926;SDS011;16038;47.692;9.400;2022-07-05T00:33:47;8.27;;;2.67;;
28926;SDS011;16038;47.692;9.400;2022-07-05T00:36:12;6.72;;;2.78;;
28926;SDS011;16038;47.692;9.400;2022-07-05T00:38:37;11.82;;;2.72;;
28926;SDS011;16038;47.692;9.400;2022-07-05T00:41:03;4.57;;;3.03;;
28926;SDS011;16038;47.692;9.400;2022-07-05T00:43:28;9.30;;;3.15;;
28926;SDS011;16038;47.692;9.400;2022-07-05T00:45:54;6.95;;;3.13;;
28926;SDS011;16038;47.692;9.400;2022-07-05T00:48:19;6.63;;;2.75;;
28926;SDS011;16038;47.692;9.400;2022-07-05T00:50:45;7.93;;;2.25;;
28926;SDS011;16038;47.692;9.400;2022-07-05T00:53:10;4.63;;;2.55;;
28926;SDS011;16038;47.692;9.400;2022-07-05T00:55:36;8.35;;;2.78;;
28926;SDS011;16038;47.692;9.400;2022-07-05T00:58:02;11.77;;;2.92;;
28926;SDS011;16038;47.692;9.400;2022-07-05T01:00:28;10.07;;;3.00;;
28926;SDS011;16038;47.692;9.400;2022-07-05T01:02:53;7.40;;;2.63;;
28926;SDS011;16038;47.692;9.400;2022-07-05T01:05:19;10.80;;;3.15;;
28926;SDS011;16038;47.692;9.400;2022-07-05T01:07:44;12.07;;;2.80;;
28926;SDS011;16038;47.692;9.400;2022-07-05T01:10:10;7.18;;;2.85;;
28926;SDS011;16038;47.692;9.400;2022-07-05T01:12:39;8.00;;;2.90;;
28926;SDS011;16038;47.692;9.400;2022-07-05T01:15:05;6.38;;;3.35;;
28926;SDS011;16038;47.692;9.400;2022-07-05T01:17:32;8.85;;;3.47;;
28926;SDS011;16038;47.692;9.400;2022-07-05T01:19:59;3.20;;;2.53;;
28926;SDS011;16038;47.692;9.400;2022-07-05T01:22:26;7.65;;;3.00;;
28926;SDS011;16038;47.692;9.400;2022-07-05T01:24:52;7.90;;;3.00;;
28926;SDS011;16038;47.692;9.400;2022-07-05T01:27:18;5.97;;;2.97;;
28926;SDS011;16038;47.692;9.400;2022-07-05T01:29:44;5.50;;;2.97;;
28926;SDS011;16038;47.692;9.400;2022-07-05T01:32:10;10.95;;;4.47;;
28926;SDS011;16038;47.692;9.400;2022-07-05T01:34:38;5.43;;;3.17;;
28926;SDS011;16038;47.692;9.400;2022-07-05T01:37:05;11.10;;;3.67;;
28926;SDS011;16038;47.692;9.400;2022-07-05T01:39:31;8.57;;;4.65;;
28926;SDS011;16038;47.692;9.400;2022-07-05T01:41:56;8.02;;;3.80;;
28926;SDS011;16038;47.692;9.400;2022-07-05T01:44:21;9.25;;;4.45;;
28926;SDS011;16038;47.692;9.400;2022-07-05T01:46:47;5.55;;;4.03;;
28926;SDS011;16038;47.692;9.400;2022-07-05T01:49:19;7.40;;;4.38;;
28926;SDS011;16038;47.692;9.400;2022-07-05T01:51:48;6.85;;;4.35;;
28926;SDS011;16038;47.692;9.400;2022-07-05T01:54:16;8.73;;;3.80;;
28926;SDS011;16038;47.692;9.400;2022-07-05T01:56:43;6.97;;;3.50;;
28926;SDS011;16038;47.692;9.400;2022-07-05T01:59:09;6.82;;;3.70;;
28926;SDS011;16038;47.692;9.400;2022-07-05T02:01:35;7.50;;;3.33;;
28926;SDS011;16038;47.692;9.400;2022-07-05T02:04:03;10.30;;;3.75;;
28926;SDS011;16038;47.692;9.400;2022-07-05T02:06:32;8.20;;;3.70;;
28926;SDS011;16038;47.692;9.400;2022-07-05T02:08:59;6.32;;;3.30;;
28926;SDS011;16038;47.692;9.400;2022-07-05T02:11:25;5.32;;;3.63;;
28926;SDS011;16038;47.692;9.400;2022-07-05T02:13:51;9.13;;;4.05;;
28926;SDS011;16038;47.692;9.400;2022-07-05T02:16:16;8.57;;;3.63;;
28926;SDS011;16038;47.692;9.400;2022-07-05T02:18:42;8.77;;;3.63;;
28926;SDS011;16038;47.692;9.400;2022-07-05T02:21:07;4.10;;;3.20;;
28926;SDS011;16038;47.692;9.400;2022-07-05T02:23:32;6.10;;;3.00;;
28926;SDS011;16038;47.692;9.400;2022-07-05T02:25:58;10.05;;;3.70;;
28926;SDS011;16038;47.692;9.400;2022-07-05T02:28:23;7.15;;;3.65;;
28926;SDS011;16038;47.692;9.400;2022-07-05T02:30:49;8.27;;;3.08;;
28926;SDS011;16038;47.692;9.400;2022-07-05T02:33:14;8.38;;;3.65;;
28926;SDS011;16038;47.692;9.400;2022-07-05T02:35:40;8.75;;;4.03;;
28926;SDS011;16038;47.692;9.400;2022-07-05T02:38:05;6.07;;;3.30;;
28926;SDS011;16038;47.692;9.400;2022-07-05T02:40:31;13.95;;;4.13;;
28926;SDS011;16038;47.692;9.400;2022-07-05T02:42:56;6.10;;;4.10;;
28926;SDS011;16038;47.692;9.400;2022-07-05T02:45:22;5.85;;;3.97;;
28926;SDS011;16038;47.692;9.400;2022-07-05T02:47:48;8.38;;;3.80;;
28926;SDS011;16038;47.692;9.400;2022-07-05T02:50:13;9.73;;;3.75;;
28926;SDS011;16038;47.692;9.400;2022-07-05T02:52:39;9.35;;;4.47;;
28926;SDS011;16038;47.692;9.400;2022-07-05T02:55:05;6.68;;;4.35;;
28926;SDS011;16038;47.692;9.400;2022-07-05T02:57:31;7.32;;;4.75;;
28926;SDS011;16038;47.692;9.400;2022-07-05T02:59:56;12.52;;;5.75;;
28926;SDS011;16038;47.692;9.400;2022-07-05T03:02:22;10.15;;;4.60;;
28926;SDS011;16038;47.692;9.400;2022-07-05T03:04:47;12.27;;;5.18;;
28926;SDS011;16038;47.692;9.400;2022-07-05T03:07:13;8.18;;;4.50;;
28926;SDS011;16038;47.692;9.400;2022-07-05T03:09:39;10.52;;;5.05;;
28926;SDS011;16038;47.692;9.400;2022-07-05T03:12:04;11.70;;;4.70;;
28926;SDS011;16038;47.692;9.400;2022-07-05T03:14:30;17.85;;;4.53;;
28926;SDS011;16038;47.692;9.400;2022-07-05T03:16:56;10.60;;;4.40;;
28926;SDS011;16038;47.692;9.400;2022-07-05T03:19:21;9.60;;;4.38;;
28926;SDS011;16038;47.692;9.400;2022-07-05T03:21:47;12.55;;;4.80;;
28926;SDS011;16038;47.692;9.400;2022-07-05T03:24:12;7.57;;;4.10;;
28926;SDS011;16038;47.692;9.400;2022-07-05T03:26:37;13.57;;;4.05;;
28926;SDS011;16038;47.692;9.400;2022-07-05T03:29:03;11.80;;;5.10;;
28926;SDS011;16038;47.692;9.400;2022-07-05T03:31:28;10.15;;;4.72;;
28926;SDS011;16038;47.692;9.400;2022-07-05T03:33:54;8.43;;;4.70;;
28926;SDS011;16038;47.692;9.400;2022-07-05T03:36:19;10.20;;;5.60;;
28926;SDS011;16038;47.692;9.400;2022-07-05T03:38:44;11.00;;;5.93;;
28926;SDS011;16038;47.692;9.400;2022-07-05T03:41:10;12.77;;;5.55;;
28926;SDS011;16038;47.692;9.400;2022-07-05T03:43:35;17.05;;;6.53;;
28926;SDS011;16038;47.692;9.400;2022-07-05T03:46:01;11.23;;;5.10;;
28926;SDS011;16038;47.692;9.400;2022-07-05T03:48:26;11.75;;;4.75;;
28926;SDS011;16038;47.692;9.400;2022-07-05T03:50:51;9.63;;;4.72;;
28926;SDS011;16038;47.692;9.400;2022-07-05T03:53:17;13.45;;;4.80;;
28926;SDS011;16038;47.692;9.400;2022-07-05T03:55:42;10.68;;;4.82;;
28926;SDS011;16038;47.692;9.400;2022-07-05T03:58:08;10.10;;;4.32;;
28926;SDS011;16038;47.692;9.400;2022-07-05T04:00:33;5.65;;;3.95;;
28926;SDS011;16038;47.692;9.400;2022-07-05T04:03:00;15.05;;;4.72;;
28926;SDS011;16038;47.692;9.400;2022-07-05T04:05:25;12.38;;;4.95;;
28926;SDS011;16038;47.692;9.400;2022-07-05T04:07:51;7.35;;;3.95;;
28926;SDS011;16038;47.692;9.400;2022-07-05T04:10:18;7.97;;;3.90;;
28926;SDS011;16038;47.692;9.400;2022-07-05T04:12:45;7.85;;;4.32;;
28926;SDS011;16038;47.692;9.400;2022-07-05T04:15:11;6.75;;;4.18;;
28926;SDS011;16038;47.692;9.400;2022-07-05T04:20:12;7.03;;;3.80;;
28926;SDS011;16038;47.692;9.400;2022-07-05T04:22:38;6.95;;;4.03;;
28926;SDS011;16038;47.692;9.400;2022-07-05T04:25:03;12.13;;;4.10;;
28926;SDS011;16038;47.692;9.400;2022-07-05T04:27:41;12.88;;;4.00;;
28926;SDS011;16038;47.692;9.400;2022-07-05T04:30:07;12.05;;;4.25;;
28926;SDS011;16038;47.692;9.400;2022-07-05T04:32:34;9.50;;;4.05;;
28926;SDS011;16038;47.692;9.400;2022-07-05T04:34:59;10.50;;;4.57;;
28926;SDS011;16038;47.692;9.400;2022-07-05T04:37:24;10.50;;;3.85;;
28926;SDS011;16038;47.692;9.400;2022-07-05T04:39:50;7.95;;;3.78;;
28926;SDS011;16038;47.692;9.400;2022-07-05T04:42:15;6.82;;;4.32;;
28926;SDS011;16038;47.692;9.400;2022-07-05T04:44:41;7.60;;;4.18;;
28926;SDS011;16038;47.692;9.400;2022-07-05T04:47:06;8.25;;;4.32;;
28926;SDS011;16038;47.692;9.400;2022-07-05T04:49:31;11.88;;;3.85;;
28926;SDS011;16038;47.692;9.400;2022-07-05T04:51:57;11.25;;;4.43;;
28926;SDS011;16038;47.692;9.400;2022-07-05T04:54:22;10.60;;;4.18;;
28926;SDS011;16038;47.692;9.400;2022-07-05T04:56:48;11.05;;;4.75;;
28926;SDS011;16038;47.692;9.400;2022-07-05T04:59:13;14.15;;;6.38;;
28926;SDS011;16038;47.692;9.400;2022-07-05T05:01:38;14.00;;;4.88;;
28926;SDS011;16038;47.692;9.400;2022-07-05T05:04:04;12.57;;;4.85;;
28926;SDS011;16038;47.692;9.400;2022-07-05T05:06:29;8.82;;;5.20;;
28926;SDS011;16038;47.692;9.400;2022-07-05T05:08:55;17.35;;;4.90;;
28926;SDS011;16038;47.692;9.400;2022-07-05T05:11:20;13.07;;;4.45;;
28926;SDS011;16038;47.692;9.400;2022-07-05T05:13:45;12.32;;;5.10;;
28926;SDS011;16038;47.692;9.400;2022-07-05T05:16:12;9.10;;;5.10;;
28926;SDS011;16038;47.692;9.400;2022-07-05T05:18:38;10.55;;;5.72;;
28926;SDS011;16038;47.692;9.400;2022-07-05T05:21:03;9.25;;;4.82;;
28926;SDS011;16038;47.692;9.400;2022-07-05T05:23:29;14.88;;;5.25;;
28926;SDS011;16038;47.692;9.400;2022-07-05T05:25:54;10.13;;;5.10;;
28926;SDS011;16038;47.692;9.400;2022-07-05T05:28:20;11.52;;;5.68;;
28926;SDS011;16038;47.692;9.400;2022-07-05T05:30:45;10.55;;;5.43;;
28926;SDS011;16038;47.692;9.400;2022-07-05T05:33:12;12.00;;;6.25;;
28926;SDS011;16038;47.692;9.400;2022-07-05T05:35:37;9.90;;;5.35;;
28926;SDS011;16038;47.692;9.400;2022-07-05T05:38:03;13.68;;;5.70;;
28926;SDS011;16038;47.692;9.400;2022-07-05T05:40:28;11.65;;;6.28;;
28926;SDS011;16038;47.692;9.400;2022-07-05T05:42:54;11.15;;;6.72;;
28926;SDS011;16038;47.692;9.400;2022-07-05T05:45:20;12.80;;;6.30;;
28926;SDS011;16038;47.692;9.400;2022-07-05T05:47:51;10.75;;;6.60;;
28926;SDS011;16038;47.692;9.400;2022-07-05T05:50:21;11.40;;;6.72;;
28926;SDS011;16038;47.692;9.400;2022-07-05T05:52:49;12.25;;;7.63;;
28926;SDS011;16038;47.692;9.400;2022-07-05T05:55:15;11.35;;;7.93;;
28926;SDS011;16038;47.692;9.400;2022-07-05T05:57:40;12.07;;;7.68;;
28926;SDS011;16038;47.692;9.400;2022-07-05T06:00:06;12.13;;;6.82;;
28926;SDS011;16038;47.692;9.400;2022-07-05T06:02:32;12.40;;;6.93;;
28926;SDS011;16038;47.692;9.400;2022-07-05T06:04:58;11.55;;;5.88;;
28926;SDS011;16038;47.692;9.400;2022-07-05T06:07:23;7.90;;;5.00;;
28926;SDS011;16038;47.692;9.400;2022-07-05T06:09:49;7.55;;;5.03;;
28926;SDS011;16038;47.692;9.400;2022-07-05T06:12:14;9.35;;;4.43;;
28926;SDS011;16038;47.692;9.400;2022-07-05T06:14:39;7.78;;;4.40;;
28926;SDS011;16038;47.692;9.400;2022-07-05T06:17:05;9.32;;;4.43;;
28926;SDS011;16038;47.692;9.400;2022-07-05T06:19:30;11.20;;;4.72;;
28926;SDS011;16038;47.692;9.400;2022-07-05T06:21:56;6.78;;;4.25;;
28926;SDS011;16038;47.692;9.400;2022-07-05T06:24:21;10.68;;;5.45;;
28926;SDS011;16038;47.692;9.400;2022-07-05T06:26:46;8.48;;;4.53;;
28926;SDS011;16038;47.692;9.400;2022-07-05T06:29:12;9.82;;;5.28;;
28926;SDS011;16038;47.692;9.400;2022-07-05T06:31:37;10.70;;;5.30;;
28926;SDS011;16038;47.692;9.400;2022-07-05T06:34:02;9.70;;;4.65;;
28926;SDS011;16038;47.692;9.400;2022-07-05T06:36:28;12.48;;;6.40;;
28926;SDS011;16038;47.692;9.400;2022-07-05T06:38:54;10.02;;;6.03;;
28926;SDS011;16038;47.692;9.400;2022-07-05T06:41:19;6.45;;;4.32;;
28926;SDS011;16038;47.692;9.400;2022-07-05T06:43:44;13.07;;;5.20;;
28926;SDS011;16038;47.692;9.400;2022-07-05T06:46:10;13.95;;;5.60;;
28926;SDS011;16038;47.692;9.400;2022-07-05T06:48:35;8.85;;;5.20;;
28926;SDS011;16038;47.692;9.400;2022-07-05T06:51:01;6.45;;;3.90;;
28926;SDS011;16038;47.692;9.400;2022-07-05T06:53:27;12.93;;;6.43;;
28926;SDS011;16038;47.692;9.400;2022-07-05T06:55:52;7.25;;;5.07;;
28926;SDS011;16038;47.692;9.400;2022-07-05T06:58:17;12.73;;;5.22;;
28926;SDS011;16038;47.692;9.400;2022-07-05T07:00:43;6.10;;;4.63;;
28926;SDS011;16038;47.692;9.400;2022-07-05T07:03:09;8.10;;;5.10;;
28926;SDS011;16038;47.692;9.400;2022-07-05T07:05:34;7.25;;;4.28;;
28926;SDS011;16038;47.692;9.400;2022-07-05T07:08:00;5.90;;;4.07;;
28926;SDS011;16038;47.692;9.400;2022-07-05T07:10:44;5.63;;;3.60;;
28926;SDS011;16038;47.692;9.400;2022-07-05T07:13:10;5.30;;;3.20;;
28926;SDS011;16038;47.692;9.400;2022-07-05T07:15:35;5.88;;;3.70;;
28926;SDS011;16038;47.692;9.400;2022-07-05T07:18:03;7.78;;;3.10;;
28926;SDS011;16038;47.692;9.400;2022-07-05T07:20:29;6.88;;;3.63;;
28926;SDS011;16038;47.692;9.400;2022-07-05T07:22:54;8.95;;;3.75;;
28926;SDS011;16038;47.692;9.400;2022-07-05T07:25:20;5.68;;;3.33;;
28926;SDS011;16038;47.692;9.400;2022-07-05T07:27:46;4.95;;;3.20;;
28926;SDS011;16038;47.692;9.400;2022-07-05T07:30:14;6.97;;;3.63;;
28926;SDS011;16038;47.692;9.400;2022-07-05T07:32:41;7.38;;;3.63;;
28926;SDS011;16038;47.692;9.400;2022-07-05T07:35:07;10.43;;;3.58;;
28926;SDS011;16038;47.692;9.400;2022-07-05T07:37:33;8.05;;;4.10;;
28926;SDS011;16038;47.692;9.400;2022-07-05T07:39:59;5.85;;;3.85;;
28926;SDS011;16038;47.692;9.400;2022-07-05T07:42:26;12.77;;;3.63;;
28926;SDS011;16038;47.692;9.400;2022-07-05T07:44:52;9.40;;;3.40;;
28926;SDS011;16038;47.692;9.400;2022-07-05T07:47:17;4.75;;;2.50;;
28926;SDS011;16038;47.692;9.400;2022-07-05T07:49:43;3.65;;;2.00;;
28926;SDS011;16038;47.692;9.400;2022-07-05T07:52:08;5.90;;;2.30;;
28926;SDS011;16038;47.692;9.400;2022-07-05T07:54:33;6.28;;;2.35;;
28926;SDS011;16038;47.692;9.400;2022-07-05T07:56:59;6.53;;;1.85;;
28926;SDS011;16038;47.692;9.400;2022-07-05T07:59:30;4.30;;;2.35;;
28926;SDS011;16038;47.692;9.400;2022-07-05T08:01:57;6.68;;;2.10;;
28926;SDS011;16038;47.692;9.400;2022-07-05T08:04:22;4.43;;;2.38;;
28926;SDS011;16038;47.692;9.400;2022-07-05T08:06:47;7.00;;;1.92;;
28926;SDS011;16038;47.692;9.400;2022-07-05T08:09:13;3.95;;;1.80;;
28926;SDS011;16038;47.692;9.400;2022-07-05T08:11:38;7.10;;;2.40;;
28926;SDS011;16038;47.692;9.400;2022-07-05T08:14:04;11.23;;;2.63;;
28926;SDS011;16038;47.692;9.400;2022-07-05T08:16:30;5.05;;;2.58;;
28926;SDS011;16038;47.692;9.400;2022-07-05T08:18:55;7.30;;;2.70;;
28926;SDS011;16038;47.692;9.400;2022-07-05T08:21:39;6.95;;;2.42;;
28926;SDS011;16038;47.692;9.400;2022-07-05T08:24:06;7.10;;;3.22;;
28926;SDS011;16038;47.692;9.400;2022-07-05T08:26:32;7.63;;;3.17;;
28926;SDS011;16038;47.692;9.400;2022-07-05T08:28:58;5.13;;;3.13;;
28926;SDS011;16038;47.692;9.400;2022-07-05T08:31:26;7.93;;;3.00;;
28926;SDS011;16038;47.692;9.400;2022-07-05T08:33:53;5.90;;;3.60;;
28926;SDS011;16038;47.692;9.400;2022-07-05T08:36:18;5.93;;;3.60;;
28926;SDS011;16038;47.692;9.400;2022-07-05T08:38:44;5.20;;;3.10;;
28926;SDS011;16038;47.692;9.400;2022-07-05T08:41:09;8.60;;;3.90;;
28926;SDS011;16038;47.692;9.400;2022-07-05T08:43:36;6.70;;;3.20;;
28926;SDS011;16038;47.692;9.400;2022-07-05T08:46:05;5.10;;;3.10;;
28926;SDS011;16038;47.692;9.400;2022-07-05T08:48:35;4.55;;;2.30;;
28926;SDS011;16038;47.692;9.400;2022-07-05T08:51:07;5.78;;;2.88;;
28926;SDS011;16038;47.692;9.400;2022-07-05T08:53:39;7.30;;;3.20;;
28926;SDS011;16038;47.692;9.400;2022-07-05T08:56:05;9.13;;;3.08;;
28926;SDS011;16038;47.692;9.400;2022-07-05T08:58:32;13.82;;;3.45;;
28926;SDS011;16038;47.692;9.400;2022-07-05T09:00:58;5.30;;;2.58;;
28926;SDS011;16038;47.692;9.400;2022-07-05T09:03:24;5.82;;;3.00;;
28926;SDS011;16038;47.692;9.400;2022-07-05T09:05:57;4.80;;;2.80;;
28926;SDS011;16038;47.692;9.400;2022-07-05T09:08:24;4.90;;;3.03;;
28926;SDS011;16038;47.692;9.400;2022-07-05T09:10:51;8.60;;;2.88;;
28926;SDS011;16038;47.692;9.400;2022-07-05T09:13:16;5.55;;;3.63;;
28926;SDS011;16038;47.692;9.400;2022-07-05T09:15:42;11.20;;;4.82;;
28926;SDS011;16038;47.692;9.400;2022-07-05T09:18:09;6.72;;;2.42;;
28926;SDS011;16038;47.692;9.400;2022-07-05T09:20:35;6.53;;;3.40;;
28926;SDS011;16038;47.692;9.400;2022-07-05T09:23:00;7.25;;;2.40;;
28926;SDS011;16038;47.692;9.400;2022-07-05T09:25:27;5.88;;;2.47;;
28926;SDS011;16038;47.692;9.400;2022-07-05T09:27:59;5.68;;;2.88;;
28926;SDS011;16038;47.692;9.400;2022-07-05T09:30:39;6.70;;;2.92;;
28926;SDS011;16038;47.692;9.400;2022-07-05T09:35:36;8.50;;;2.10;;
28926;SDS011;16038;47.692;9.400;2022-07-05T09:38:03;4.78;;;3.20;;
28926;SDS011;16038;47.692;9.400;2022-07-05T09:40:30;8.77;;;2.92;;
28926;SDS011;16038;47.692;9.400;2022-07-05T09:43:12;8.27;;;3.38;;
28926;SDS011;16038;47.692;9.400;2022-07-05T09:45:39;8.52;;;2.97;;
28926;SDS011;16038;47.692;9.400;2022-07-05T09:48:07;6.70;;;2.97;;
28926;SDS011;16038;47.692;9.400;2022-07-05T09:50:36;6.88;;;3.30;;
28926;SDS011;16038;47.692;9.400;2022-07-05T09:53:02;14.47;;;2.70;;
28926;SDS011;16038;47.692;9.400;2022-07-05T09:55:27;5.32;;;2.88;;
28926;SDS011;16038;47.692;9.400;2022-07-05T09:57:53;8.38;;;2.70;;
28926;SDS011;16038;47.692;9.400;2022-07-05T10:00:19;8.73;;;2.35;;
28926;SDS011;16038;47.692;9.400;2022-07-05T10:02:47;13.45;;;3.13;;
28926;SDS011;16038;47.692;9.400;2022-07-05T10:07:44;6.13;;;2.70;;
28926;SDS011;16038;47.692;9.400;2022-07-05T10:10:27;6.13;;;2.72;;
28926;SDS011;16038;47.692;9.400;2022-07-05T10:13:03;3.88;;;2.20;;
28926;SDS011;16038;47.692;9.400;2022-07-05T10:15:32;5.70;;;2.35;;
28926;SDS011;16038;47.692;9.400;2022-07-05T10:18:00;10.68;;;2.15;;
28926;SDS011;16038;47.692;9.400;2022-07-05T10:20:42;4.03;;;2.45;;
28926;SDS011;16038;47.692;9.400;2022-07-05T10:23:10;2.85;;;1.80;;
28926;SDS011;16038;47.692;9.400;2022-07-05T10:25:37;3.08;;;1.88;;
28926;SDS011;16038;47.692;9.400;2022-07-05T10:28:04;6.05;;;2.00;;
28926;SDS011;16038;47.692;9.400;2022-07-05T10:30:31;5.25;;;1.98;;
28926;SDS011;16038;47.692;9.400;2022-07-05T10:32:58;3.25;;;1.75;;
28926;SDS011;16038;47.692;9.400;2022-07-05T10:35:26;7.53;;;1.98;;
28926;SDS011;16038;47.692;9.400;2022-07-05T10:37:52;4.43;;;2.00;;
28926;SDS011;16038;47.692;9.400;2022-07-05T10:40:18;4.70;;;2.20;;
28926;SDS011;16038;47.692;9.400;2022-07-05T10:42:52;4.00;;;1.85;;
28926;SDS011;16038;47.692;9.400;2022-07-05T10:55:55;4.15;;;1.40;;
28926;SDS011;16038;47.692;9.400;2022-07-05T11:06:02;8.18;;;1.70;;
28926;SDS011;16038;47.692;9.400;2022-07-05T11:08:30;5.82;;;1.70;;
28926;SDS011;16038;47.692;9.400;2022-07-05T11:11:10;7.43;;;1.63;;
28926;SDS011;16038;47.692;9.400;2022-07-05T11:13:38;1.60;;;1.33;;
28926;SDS011;16038;47.692;9.400;2022-07-05T11:19:07;3.60;;;1.47;;
28926;SDS011;16038;47.692;9.400;2022-07-05T11:21:33;7.10;;;3.07;;
28926;SDS011;16038;47.692;9.400;2022-07-05T11:26:44;2.17;;;1.13;;
28926;SDS011;16038;47.692;9.400;2022-07-05T11:34:55;4.00;;;1.70;;
28926;SDS011;16038;47.692;9.400;2022-07-05T11:37:55;3.38;;;1.65;;
28926;SDS011;16038;47.692;9.400;2022-07-05T11:40:25;3.63;;;1.13;;
28926;SDS011;16038;47.692;9.400;2022-07-05T11:42:53;3.47;;;1.00;;
28926;SDS011;16038;47.692;9.400;2022-07-05T11:45:18;1.90;;;0.90;;
28926;SDS011;16038;47.692;9.400;2022-07-05T11:47:44;4.43;;;1.45;;
28926;SDS011;16038;47.692;9.400;2022-07-05T11:50:10;6.45;;;1.58;;
28926;SDS011;16038;47.692;9.400;2022-07-05T11:52:36;11.25;;;2.13;;
28926;SDS011;16038;47.692;9.400;2022-07-05T11:55:06;4.25;;;1.77;;
28926;SDS011;16038;47.692;9.400;2022-07-05T11:57:33;4.78;;;1.67;;
28926;SDS011;16038;47.692;9.400;2022-07-05T11:59:59;4.18;;;1.30;;
28926;SDS011;16038;47.692;9.400;2022-07-05T12:02:24;4.20;;;1.42;;
28926;SDS011;16038;47.692;9.400;2022-07-05T12:04:50;3.75;;;1.42;;
28926;SDS011;16038;47.692;9.400;2022-07-05T12:07:27;6.90;;;1.85;;
28926;SDS011;16038;47.692;9.400;2022-07-05T12:09:53;4.70;;;1.02;;
28926;SDS011;16038;47.692;9.400;2022-07-05T12:12:37;4.25;;;1.40;;
28926;SDS011;16038;47.692;9.400;2022-07-05T12:15:12;2.53;;;1.45;;
28926;SDS011;16038;47.692;9.400;2022-07-05T12:17:41;4.60;;;1.52;;
28926;SDS011;16038;47.692;9.400;2022-07-05T12:20:09;2.78;;;1.08;;
28926;SDS011;16038;47.692;9.400;2022-07-05T12:22:37;3.97;;;1.10;;
28926;SDS011;16038;47.692;9.400;2022-07-05T12:25:07;4.05;;;1.08;;
28926;SDS011;16038;47.692;9.400;2022-07-05T12:27:36;1.92;;;0.93;;
28926;SDS011;16038;47.692;9.400;2022-07-05T12:30:04;3.38;;;1.20;;
28926;SDS011;16038;47.692;9.400;2022-07-05T12:32:34;3.13;;;1.02;;
28926;SDS011;16038;47.692;9.400;2022-07-05T12:35:01;3.15;;;1.40;;
28926;SDS011;16038;47.692;9.400;2022-07-05T12:37:27;4.90;;;1.08;;
28926;SDS011;16038;47.692;9.400;2022-07-05T12:40:06;3.25;;;1.10;;
28926;SDS011;16038;47.692;9.400;2022-07-05T12:42:36;5.38;;;1.20;;
28926;SDS011;16038;47.692;9.400;2022-07-05T12:45:10;3.22;;;1.25;;
28926;SDS011;16038;47.692;9.400;2022-07-05T12:47:51;2.25;;;0.95;;
28926;SDS011;16038;47.692;9.400;2022-07-05T12:50:25;5.97;;;0.90;;
28926;SDS011;16038;47.692;9.400;2022-07-05T12:56:05;2.35;;;1.08;;
28926;SDS011;16038;47.692;9.400;2022-07-05T12:58:54;2.65;;;0.70;;
28926;SDS011;16038;47.692;9.400;2022-07-05T13:01:30;3.45;;;1.10;;
28926;SDS011;16038;47.692;9.400;2022-07-05T13:04:06;2.60;;;1.00;;
28926;SDS011;16038;47.692;9.400;2022-07-05T13:09:37;2.53;;;0.88;;
28926;SDS011;16038;47.692;9.400;2022-07-05T13:14:37;2.70;;;1.00;;
28926;SDS011;16038;47.692;9.400;2022-07-05T13:17:05;3.72;;;0.88;;
28926;SDS011;16038;47.692;9.400;2022-07-05T13:19:31;3.63;;;0.93;;
28926;SDS011;16038;47.692;9.400;2022-07-05T13:21:56;2.60;;;1.10;;
28926;SDS011;16038;47.692;9.400;2022-07-05T13:24:22;4.43;;;2.78;;
28926;SDS011;16038;47.692;9.400;2022-07-05T13:26:47;5.75;;;0.90;;
28926;SDS011;16038;47.692;9.400;2022-07-05T13:29:12;2.53;;;0.70;;
28926;SDS011;16038;47.692;9.400;2022-07-05T13:31:38;1.67;;;0.80;;
28926;SDS011;16038;47.692;9.400;2022-07-05T13:34:03;1.80;;;0.90;;
28926;SDS011;16038;47.692;9.400;2022-07-05T13:36:29;3.30;;;0.73;;
28926;SDS011;16038;47.692;9.400;2022-07-05T13:38:54;5.60;;;0.80;;
28926;SDS011;16038;47.692;9.400;2022-07-05T13:41:20;2.05;;;0.80;;
28926;SDS011;16038;47.692;9.400;2022-07-05T13:43:45;3.75;;;0.90;;
28926;SDS011;16038;47.692;9.400;2022-07-05T13:46:11;3.33;;;0.93;;
28926;SDS011;16038;47.692;9.400;2022-07-05T13:48:37;5.15;;;1.60;;
28926;SDS011;16038;47.692;9.400;2022-07-05T13:51:03;5.32;;;0.98;;
28926;SDS011;16038;47.692;9.400;2022-07-05T13:53:29;2.22;;;0.70;;
28926;SDS011;16038;47.692;9.400;2022-07-05T13:55:54;1.92;;;0.70;;
28926;SDS011;16038;47.692;9.400;2022-07-05T13:58:19;5.00;;;0.90;;
28926;SDS011;16038;47.692;9.400;2022-07-05T14:00:45;5.72;;;0.90;;
28926;SDS011;16038;47.692;9.400;2022-07-05T14:03:10;2.72;;;0.80;;
28926;SDS011;16038;47.692;9.400;2022-07-05T14:05:36;3.65;;;0.90;;
28926;SDS011;16038;47.692;9.400;2022-07-05T14:08:01;2.80;;;0.80;;
28926;SDS011;16038;47.692;9.400;2022-07-05T14:10:27;3.92;;;0.73;;
28926;SDS011;16038;47.692;9.400;2022-07-05T14:12:53;5.20;;;1.00;;
28926;SDS011;16038;47.692;9.400;2022-07-05T14:15:18;2.15;;;0.90;;
28926;SDS011;16038;47.692;9.400;2022-07-05T14:17:44;1.92;;;0.68;;
28926;SDS011;16038;47.692;9.400;2022-07-05T14:20:09;2.08;;;0.80;;
28926;SDS011;16038;47.692;9.400;2022-07-05T14:22:35;4.00;;;0.93;;
28926;SDS011;16038;47.692;9.400;2022-07-05T14:25:00;1.73;;;1.23;;
28926;SDS011;16038;47.692;9.400;2022-07-05T14:27:26;3.45;;;1.00;;
28926;SDS011;16038;47.692;9.400;2022-07-05T14:29:51;2.72;;;0.80;;
28926;SDS011;16038;47.692;9.400;2022-07-05T14:32:17;2.40;;;1.13;;
28926;SDS011;16038;47.692;9.400;2022-07-05T14:34:42;2.97;;;0.90;;
28926;SDS011;16038;47.692;9.400;2022-07-05T14:37:07;3.08;;;0.82;;
28926;SDS011;16038;47.692;9.400;2022-07-05T14:39:33;2.45;;;0.88;;
28926;SDS011;16038;47.692;9.400;2022-07-05T14:41:58;1.92;;;0.77;;
28926;SDS011;16038;47.692;9.400;2022-07-05T14:44:24;2.00;;;0.77;;
28926;SDS011;16038;47.692;9.400;2022-07-05T14:46:49;4.05;;;1.02;;
28926;SDS011;16038;47.692;9.400;2022-07-05T14:49:15;5.05;;;1.00;;
28926;SDS011;16038;47.692;9.400;2022-07-05T14:51:40;2.97;;;0.90;;
28926;SDS011;16038;47.692;9.400;2022-07-05T14:54:05;2.90;;;1.20;;
28926;SDS011;16038;47.692;9.400;2022-07-05T14:56:31;6.15;;;3.15;;
28926;SDS011;16038;47.692;9.400;2022-07-05T14:58:56;3.25;;;1.65;;
28926;SDS011;16038;47.692;9.400;2022-07-05T15:01:21;2.67;;;1.30;;
28926;SDS011;16038;47.692;9.400;2022-07-05T15:03:47;3.53;;;0.90;;
28926;SDS011;16038;47.692;9.400;2022-07-05T15:06:12;4.68;;;0.95;;
28926;SDS011;16038;47.692;9.400;2022-07-05T15:08:39;2.78;;;1.10;;
28926;SDS011;16038;47.692;9.400;2022-07-05T15:11:05;2.72;;;0.75;;
28926;SDS011;16038;47.692;9.400;2022-07-05T15:13:31;2.38;;;1.02;;
28926;SDS011;16038;47.692;9.400;2022-07-05T15:15:56;3.97;;;0.90;;
28926;SDS011;16038;47.692;9.400;2022-07-05T15:18:25;2.95;;;0.90;;
28926;SDS011;16038;47.692;9.400;2022-07-05T15:20:50;2.97;;;1.00;;
28926;SDS011;16038;47.692;9.400;2022-07-05T15:23:21;4.57;;;1.30;;
28926;SDS011;16038;47.692;9.400;2022-07-05T15:25:52;3.53;;;0.82;;
28926;SDS011;16038;47.692;9.400;2022-07-05T15:28:22;3.30;;;1.00;;
28926;SDS011;16038;47.692;9.400;2022-07-05T15:30:48;4.05;;;0.80;;